Davie, FL (33331)

8:34 AM EDT on July 31, 2015 (GMT -0400)
Weston-Emerald Estates | | Change Station
CLOSE
Current Station
Personal Weather Station
Location: Fort Lauderdale, FL
Elevation: 16 ft
Nearby Weather Stations

Elev 16 ft 26.07 °N, 80.37 °W | Updated 21 seconds ago

Partly Cloudy
Partly Cloudy
81.9 °F
Feels Like 89 °F
N
0.7
Wind Variable Wind from SSE
Gusts 2.2 mph

Today
High -- | Low -- °F
--% Chance of Precip.
Yesterday
High -- | Low -- °F
Precip. -- in
6:46 AM 8:08 PM
Full, 100% visible
Pressure 30.04 in
Visibility 10.0 miles
Clouds Clear
Heat Index 89 °F
Dew Point 76 °F
Humidity 82%
Rainfall 0.00 in
Snow Depth Not available.
UV 1 out of 12
Pollen 2.40 out of 12
Air Quality Not available.
Flu Activity Not available.
METAR KOPF 311153Z 00000KT 10SM CLR 28/24 A3003 RMK AO2 SLP170 T02830239 10283 20261 53007

More Conditions Fewer Conditions

Pressure 30.04 in
Visibility 10.0 miles
Clouds Clear
Heat Index 89 °F
Dew Point 76 °F
Humidity 82%
Rainfall 0.00 in
Snow Depth Not available.
UV 1 out of 12
Pollen 2.40 out of 12
Air Quality Not available.
Flu Activity Not available.
METAR KOPF 311153Z 00000KT 10SM CLR 28/24 A3003 RMK AO2 SLP170 T02830239 10283 20261 53007

More Conditions Fewer Conditions

10-Day Weather Forecast

×

Almanac

Astronomy

Jul. 31, 2015 Rise Set
Actual Time
Civil Twilight
Nautical Twilight
Astronomical Twilight
Moon
Length of Visible Light
Length of Day
Tomorrow will be .
, % of the Moon is Illuminated

Today's Extremes

State Highs State Lows

Community

WunderPhotos

Upload Photos

1,842,646 photos uploaded!

WunderBlogs® & News

Nearby

Air Quality

  Air Quality AQ Index Pollutant
Not available.

Snow Depth

Station Depth Elevation

Earthquake Activity

City Distance Mag. Time & Date
Minimum magnitude displayed is 2.5.

Coastal Water Temperatures

Place Temperature

Stations

Nearby Weather Stations

Station Location Temp. Windchill Dew Point Humidity Wind Precip. Elev Updated Type